createdAt,value
2023-03-14T00:00:25.143Z,978.56
2023-03-14T00:01:25.116Z,978.6
2023-03-14T00:02:25.149Z,978.54
2023-03-14T00:03:25.059Z,978.53
2023-03-14T00:04:25.033Z,978.56
2023-03-14T00:05:25.005Z,978.65
2023-03-14T00:06:24.993Z,978.72
2023-03-14T00:07:24.948Z,978.72
2023-03-14T00:08:24.941Z,978.73
2023-03-14T00:09:24.890Z,978.59
2023-03-14T00:10:24.867Z,978.44
2023-03-14T00:11:24.835Z,978.48
2023-03-14T00:12:24.822Z,978.45
2023-03-14T00:13:24.777Z,978.44
2023-03-14T00:14:24.752Z,978.39
2023-03-14T00:15:24.722Z,978.36
2023-03-14T00:16:24.732Z,978.25
2023-03-14T00:17:24.664Z,978.32
2023-03-14T00:18:24.637Z,978.25
2023-03-14T00:19:24.607Z,978.17
2023-03-14T00:20:24.580Z,978.06
2023-03-14T00:21:24.550Z,978.02
2023-03-14T00:22:24.523Z,978.14
2023-03-14T00:23:24.494Z,978.17
2023-03-14T00:24:24.489Z,978.16
2023-03-14T00:25:24.438Z,978.13
2023-03-14T00:26:24.411Z,978.1
2023-03-14T00:27:24.380Z,978
2023-03-14T00:28:24.354Z,977.94
2023-03-14T00:29:24.326Z,978.02
2023-03-14T00:30:24.298Z,978.06
2023-03-14T00:31:24.325Z,978.07
2023-03-14T00:32:24.244Z,978.1
2023-03-14T00:33:24.208Z,978.12
2023-03-14T00:34:24.184Z,978.18
2023-03-14T00:35:24.161Z,978.27
2023-03-14T00:36:24.125Z,978.34
2023-03-14T00:37:24.094Z,978.39
2023-03-14T00:38:24.069Z,978.48
2023-03-14T00:39:24.038Z,978.51
2023-03-14T00:40:24.038Z,978.59
2023-03-14T00:41:23.989Z,978.69
2023-03-14T00:42:23.953Z,978.69
2023-03-14T00:43:23.924Z,978.62
2023-03-14T00:44:23.900Z,978.67
2023-03-14T00:45:23.868Z,978.69
2023-03-14T00:46:23.889Z,978.65
2023-03-14T00:47:23.828Z,978.65
2023-03-14T00:48:23.782Z,978.63
2023-03-14T00:49:23.752Z,978.64
2023-03-14T00:50:23.725Z,978.57
2023-03-14T00:51:23.700Z,978.58
2023-03-14T00:52:23.673Z,978.53
2023-03-14T00:53:23.641Z,978.55
2023-03-14T00:54:23.620Z,978.51
2023-03-14T00:55:23.582Z,978.4
2023-03-14T00:56:23.582Z,978.37
2023-03-14T00:57:23.528Z,978.32
2023-03-14T00:58:23.496Z,978.26
2023-03-14T00:59:23.469Z,978.26
2023-03-14T01:00:23.438Z,978.25
2023-03-14T01:01:23.422Z,978.18
2023-03-14T01:02:23.384Z,978.17
2023-03-14T01:03:23.356Z,978.23
2023-03-14T01:04:23.330Z,978.21
2023-03-14T01:05:23.303Z,978.2
2023-03-14T01:06:23.272Z,978.19
2023-03-14T01:07:23.249Z,978.11
2023-03-14T01:08:23.217Z,978.26
2023-03-14T01:09:23.189Z,978.23
2023-03-14T01:10:23.160Z,978.26
2023-03-14T01:11:23.138Z,978.17
2023-03-14T01:12:23.135Z,978.2
2023-03-14T01:13:23.081Z,978.13
2023-03-14T01:14:23.049Z,978.3
2023-03-14T01:15:23.022Z,978.33
2023-03-14T01:16:23.035Z,978.38
2023-03-14T01:17:22.974Z,978.46
2023-03-14T01:18:22.937Z,978.7
2023-03-14T01:19:22.914Z,978.59
2023-03-14T01:20:22.901Z,978.85
2023-03-14T01:21:22.864Z,979.07
2023-03-14T01:22:22.826Z,979.15
2023-03-14T01:23:22.799Z,978.89
2023-03-14T01:24:22.772Z,979.09
2023-03-14T01:25:22.747Z,979.13
2023-03-14T01:26:22.722Z,979.06
2023-03-14T01:27:22.687Z,979.25
2023-03-14T01:28:22.683Z,979.14
2023-03-14T01:29:22.628Z,979.11
2023-03-14T01:30:22.618Z,978.91
2023-03-14T01:31:22.606Z,978.95
2023-03-14T01:32:22.568Z,978.87
2023-03-14T01:33:22.510Z,978.8
2023-03-14T01:34:22.483Z,978.86
2023-03-14T01:35:22.462Z,978.81
2023-03-14T01:36:22.426Z,978.92
2023-03-14T01:37:22.395Z,978.86
2023-03-14T01:38:22.365Z,978.83
2023-03-14T01:39:22.336Z,978.87
2023-03-14T01:40:22.307Z,978.82
2023-03-14T01:41:22.279Z,978.95
2023-03-14T01:42:22.253Z,978.75
2023-03-14T01:43:22.218Z,978.88
2023-03-14T01:44:22.216Z,978.85
2023-03-14T01:45:22.163Z,978.79
2023-03-14T01:46:22.139Z,978.8
2023-03-14T01:47:22.099Z,978.73
2023-03-14T01:48:22.073Z,978.62
2023-03-14T01:49:22.078Z,978.61
2023-03-14T01:50:22.018Z,978.62
2023-03-14T01:51:21.981Z,978.6
2023-03-14T01:52:21.954Z,978.48
2023-03-14T01:53:21.923Z,978.46
2023-03-14T01:54:21.896Z,978.37
2023-03-14T01:55:21.864Z,978.44
2023-03-14T01:56:21.836Z,978.39
2023-03-14T01:57:21.802Z,978.45
2023-03-14T01:58:21.775Z,978.45
2023-03-14T01:59:21.745Z,978.44
2023-03-14T02:00:21.742Z,978.47
2023-03-14T02:01:21.716Z,978.38
2023-03-14T02:02:21.657Z,978.46
2023-03-14T02:03:21.660Z,978.45
2023-03-14T02:04:21.603Z,978.33
2023-03-14T02:05:21.566Z,978.4
2023-03-14T02:06:21.543Z,978.37
2023-03-14T02:07:21.516Z,978.34
2023-03-14T02:08:21.489Z,978.4
2023-03-14T02:09:21.455Z,978.37
2023-03-14T02:10:21.419Z,978.3
2023-03-14T02:11:21.386Z,978.37
2023-03-14T02:12:21.357Z,978.28
2023-03-14T02:13:21.328Z,978.35
2023-03-14T02:14:21.296Z,978.2
2023-03-14T02:15:21.264Z,978.22
2023-03-14T02:16:21.294Z,978.16
2023-03-14T02:17:21.210Z,978.21
2023-03-14T02:18:21.178Z,978.25
2023-03-14T02:19:21.146Z,978.26
2023-03-14T02:20:21.114Z,978.22
2023-03-14T02:21:21.081Z,978.24
2023-03-14T02:22:21.056Z,978.24
2023-03-14T02:23:21.021Z,978.27
2023-03-14T02:24:20.994Z,978.44
2023-03-14T02:25:20.962Z,978.35
2023-03-14T02:26:20.937Z,978.31
2023-03-14T02:27:20.906Z,978.31
2023-03-14T02:28:20.874Z,978.35
2023-03-14T02:29:20.841Z,978.3
2023-03-14T02:30:20.811Z,978.38
2023-03-14T02:31:20.807Z,978.32
2023-03-14T02:32:20.826Z,978.27
2023-03-14T02:33:20.722Z,978.23
2023-03-14T02:34:20.706Z,978.3
2023-03-14T02:35:20.662Z,978.31
2023-03-14T02:36:20.636Z,978.36
2023-03-14T02:37:20.603Z,978.26
2023-03-14T02:38:20.570Z,978.26
2023-03-14T02:39:20.542Z,978.27
2023-03-14T02:40:20.516Z,978.2
2023-03-14T02:41:20.483Z,978.23
2023-03-14T02:42:20.452Z,978.3
2023-03-14T02:43:20.422Z,978.19
2023-03-14T02:44:20.391Z,978.34
2023-03-14T02:45:20.363Z,978.33
2023-03-14T02:46:20.440Z,978.26
2023-03-14T02:47:20.304Z,978.35
2023-03-14T02:48:20.318Z,978.27
2023-03-14T02:49:20.242Z,978.35
2023-03-14T02:50:20.227Z,978.31
2023-03-14T02:51:20.183Z,978.27
2023-03-14T02:52:20.151Z,978.31
2023-03-14T02:53:20.123Z,978.23
2023-03-14T02:54:20.092Z,978.22
2023-03-14T02:55:20.064Z,978.32
2023-03-14T02:56:20.034Z,978.25
2023-03-14T02:57:20.004Z,978.23
2023-03-14T02:58:19.979Z,978.15
2023-03-14T02:59:19.947Z,978.17
2023-03-14T03:00:19.916Z,978.21
2023-03-14T03:01:19.917Z,978.23
2023-03-14T03:02:19.858Z,978.21
2023-03-14T03:03:19.866Z,978.2
2023-03-14T03:04:19.832Z,978.23
2023-03-14T03:05:19.766Z,978.2
2023-03-14T03:06:19.736Z,978.23
2023-03-14T03:07:19.706Z,978.15
2023-03-14T03:08:19.675Z,978.13
2023-03-14T03:09:19.653Z,978.16
2023-03-14T03:10:19.636Z,978.17
2023-03-14T03:11:19.592Z,978.17
2023-03-14T03:12:19.562Z,978.19
2023-03-14T03:13:19.549Z,978.18
2023-03-14T03:14:19.507Z,978.21
2023-03-14T03:15:19.470Z,978.16
2023-03-14T03:16:19.501Z,978.16
2023-03-14T03:17:19.417Z,978.11
2023-03-14T03:18:19.381Z,978.06
2023-03-14T03:19:19.355Z,978.08
2023-03-14T03:20:19.354Z,978
2023-03-14T03:21:19.297Z,978.07
2023-03-14T03:22:19.264Z,978.02
2023-03-14T03:23:19.243Z,978.01
2023-03-14T03:24:19.210Z,978
2023-03-14T03:25:19.195Z,977.97
2023-03-14T03:26:19.153Z,978
2023-03-14T03:27:19.121Z,977.96
2023-03-14T03:28:19.093Z,977.95
2023-03-14T03:29:19.068Z,977.92
2023-03-14T03:30:19.068Z,977.93
2023-03-14T03:31:19.137Z,977.83
2023-03-14T03:32:19.058Z,977.83
2023-03-14T03:33:18.960Z,977.78
2023-03-14T03:34:18.919Z,977.87
2023-03-14T03:35:18.887Z,977.81
2023-03-14T03:36:18.888Z,977.73
2023-03-14T03:37:18.831Z,977.76
2023-03-14T03:38:18.799Z,977.8
2023-03-14T03:39:18.776Z,977.81
2023-03-14T03:40:18.761Z,977.8
2023-03-14T03:41:18.713Z,977.79
2023-03-14T03:42:18.700Z,977.7
2023-03-14T03:43:18.651Z,977.74
2023-03-14T03:44:18.623Z,977.82
2023-03-14T03:45:18.593Z,977.82
2023-03-14T03:46:18.606Z,977.78
2023-03-14T03:47:18.533Z,977.83
2023-03-14T03:48:18.506Z,977.85
2023-03-14T03:49:18.478Z,977.78
2023-03-14T03:50:18.450Z,977.83
2023-03-14T03:51:18.415Z,977.82
2023-03-14T03:52:18.409Z,977.84
2023-03-14T03:53:30.710Z,977.75
2023-03-14T03:54:18.328Z,977.85
2023-03-14T03:55:18.299Z,977.79
2023-03-14T03:56:18.270Z,977.82
2023-03-14T03:57:18.237Z,977.85
2023-03-14T03:58:18.209Z,977.77
2023-03-14T03:59:18.179Z,977.8
2023-03-14T04:00:18.151Z,977.79
2023-03-14T04:01:18.119Z,977.82
2023-03-14T04:02:18.142Z,977.77
2023-03-14T04:03:18.060Z,977.89
2023-03-14T04:04:18.129Z,977.89
2023-03-14T04:05:18.023Z,977.93
2023-03-14T04:06:18.019Z,977.93
2023-03-14T04:07:17.946Z,977.92
2023-03-14T04:08:17.994Z,977.92
2023-03-14T04:09:17.884Z,977.92
2023-03-14T04:10:17.854Z,977.9
2023-03-14T04:11:18.277Z,977.95
2023-03-14T04:12:17.802Z,977.89
2023-03-14T04:13:17.772Z,977.9
2023-03-14T04:14:17.735Z,977.84
2023-03-14T04:15:17.710Z,977.91
2023-03-14T04:16:17.746Z,977.86
2023-03-14T04:17:17.646Z,977.79
2023-03-14T04:18:17.616Z,977.81
2023-03-14T04:19:17.590Z,977.86
2023-03-14T04:20:17.561Z,977.83
2023-03-14T04:21:17.529Z,977.78
2023-03-14T04:22:17.499Z,977.86
2023-03-14T04:23:17.473Z,977.88
2023-03-14T04:24:17.464Z,977.88
2023-03-14T04:25:17.460Z,977.88
2023-03-14T04:26:17.383Z,977.88
2023-03-14T04:27:17.358Z,978
2023-03-14T04:28:17.318Z,977.8
2023-03-14T04:29:17.296Z,977.83
2023-03-14T04:30:17.259Z,977.83
2023-03-14T04:31:17.254Z,977.87
2023-03-14T04:32:17.199Z,977.81
2023-03-14T04:33:17.175Z,977.77
2023-03-14T04:34:17.145Z,977.79
2023-03-14T04:35:17.116Z,977.8
2023-03-14T04:36:17.079Z,977.86
2023-03-14T04:37:17.058Z,977.81
2023-03-14T04:38:17.024Z,977.79
2023-03-14T04:39:16.992Z,977.84
2023-03-14T04:40:18.695Z,977.69
2023-03-14T04:41:16.932Z,977.8
2023-03-14T04:42:16.901Z,977.75
2023-03-14T04:43:16.872Z,977.85
2023-03-14T04:44:16.860Z,977.74
2023-03-14T04:45:16.814Z,977.69
2023-03-14T04:46:16.835Z,977.75
2023-03-14T04:47:16.753Z,977.77
2023-03-14T04:48:16.721Z,977.8
2023-03-14T04:49:16.693Z,977.71
2023-03-14T04:50:16.668Z,977.76
2023-03-14T04:51:16.636Z,977.77
2023-03-14T04:52:16.604Z,977.75
2023-03-14T04:53:16.574Z,977.82
2023-03-14T04:54:16.542Z,977.86
2023-03-14T04:55:16.514Z,977.85
2023-03-14T04:56:16.518Z,977.94
2023-03-14T04:57:16.460Z,977.88
2023-03-14T04:58:16.428Z,977.84
2023-03-14T04:59:16.395Z,977.81
2023-03-14T05:00:16.372Z,977.74
2023-03-14T05:01:16.337Z,977.75
2023-03-14T05:02:16.303Z,977.71
2023-03-14T05:03:16.352Z,977.73
2023-03-14T05:04:16.239Z,977.64
2023-03-14T05:05:16.225Z,977.61
2023-03-14T05:06:16.184Z,977.5
2023-03-14T05:07:16.148Z,977.57
2023-03-14T05:08:16.120Z,977.51
2023-03-14T05:09:16.088Z,977.55
2023-03-14T05:10:16.060Z,977.63
2023-03-14T05:11:16.043Z,977.62
2023-03-14T05:12:16.029Z,977.59
2023-03-14T05:13:15.966Z,977.6
2023-03-14T05:14:15.938Z,977.63
2023-03-14T05:15:15.909Z,977.59
2023-03-14T05:16:15.936Z,977.57
2023-03-14T05:17:15.846Z,977.52
2023-03-14T05:18:15.817Z,977.52
2023-03-14T05:19:15.785Z,977.58
2023-03-14T05:20:15.754Z,977.71
2023-03-14T05:21:15.723Z,977.47
2023-03-14T05:22:15.697Z,977.46
2023-03-14T05:23:15.661Z,977.46
2023-03-14T05:24:15.634Z,977.35
2023-03-14T05:25:15.606Z,977.35
2023-03-14T05:26:15.572Z,977.37
2023-03-14T05:27:15.541Z,977.34
2023-03-14T05:28:15.539Z,977.37
2023-03-14T05:29:15.478Z,977.41
2023-03-14T05:30:15.452Z,977.32
2023-03-14T05:31:15.461Z,977.35
2023-03-14T05:32:15.402Z,977.36
2023-03-14T05:33:15.356Z,977.42
2023-03-14T05:34:15.333Z,977.35
2023-03-14T05:35:15.298Z,977.51
2023-03-14T05:36:15.270Z,977.26
2023-03-14T05:37:15.254Z,977.32
2023-03-14T05:38:15.209Z,977.32
2023-03-14T05:39:15.178Z,977.31
2023-03-14T05:40:15.147Z,977.31
2023-03-14T05:41:15.117Z,977.35
2023-03-14T05:42:15.088Z,977.2
2023-03-14T05:43:15.057Z,977.18
2023-03-14T05:44:15.170Z,977.28
2023-03-14T05:45:15.000Z,977.22
2023-03-14T05:46:15.017Z,977.18
2023-03-14T05:47:14.935Z,977.24
2023-03-14T05:48:14.907Z,977.17
2023-03-14T05:49:14.879Z,977.03
2023-03-14T05:50:14.847Z,977.2
2023-03-14T05:51:14.818Z,977.12
2023-03-14T05:52:14.786Z,977.21
2023-03-14T05:53:14.752Z,977.23
2023-03-14T05:54:14.724Z,977.14
2023-03-14T05:55:14.693Z,977.14
2023-03-14T05:56:14.663Z,977.15
2023-03-14T05:57:14.632Z,977.12
2023-03-14T05:58:14.609Z,977.11
2023-03-14T05:59:14.567Z,977.11
2023-03-14T06:00:14.564Z,977.08
2023-03-14T06:01:14.514Z,977.1
2023-03-14T06:02:14.525Z,977.11
2023-03-14T06:03:14.485Z,977.07
2023-03-14T06:04:14.417Z,977.07
2023-03-14T06:05:14.412Z,977.05
2023-03-14T06:06:14.355Z,977.04
2023-03-14T06:07:14.322Z,977.04
2023-03-14T06:08:15.744Z,977.05
2023-03-14T06:09:14.267Z,977.05
2023-03-14T06:10:14.230Z,977.01
2023-03-14T06:11:14.202Z,977.03
2023-03-14T06:12:14.172Z,976.96
2023-03-14T06:13:14.141Z,976.98
2023-03-14T06:14:14.109Z,976.93
2023-03-14T06:15:14.086Z,976.96
2023-03-14T06:16:14.080Z,976.97
2023-03-14T06:17:14.019Z,976.99
2023-03-14T06:18:13.990Z,976.91
2023-03-14T06:19:13.967Z,977.03
2023-03-14T06:20:13.928Z,976.97
2023-03-14T06:21:14.001Z,976.94
2023-03-14T06:22:13.869Z,976.99
2023-03-14T06:23:13.840Z,977.01
2023-03-14T06:24:13.823Z,976.99
2023-03-14T06:25:13.783Z,977.04
2023-03-14T06:26:13.748Z,976.99
2023-03-14T06:27:13.724Z,977.01
2023-03-14T06:28:13.692Z,976.95
2023-03-14T06:29:13.661Z,976.91
2023-03-14T06:30:13.639Z,976.9
2023-03-14T06:31:13.673Z,977.01
2023-03-14T06:32:13.594Z,977.05
2023-03-14T06:33:13.543Z,977.04
2023-03-14T06:34:13.517Z,976.96
2023-03-14T06:35:13.480Z,976.97
2023-03-14T06:36:13.485Z,977.01
2023-03-14T06:37:13.435Z,976.96
2023-03-14T06:38:13.392Z,976.97
2023-03-14T06:39:13.365Z,977
2023-03-14T06:40:13.336Z,977.02
2023-03-14T06:41:13.308Z,976.98
2023-03-14T06:42:13.274Z,977.02
2023-03-14T06:43:13.246Z,977
2023-03-14T06:44:13.228Z,976.98
2023-03-14T06:45:13.187Z,976.97
2023-03-14T06:46:13.217Z,976.97
2023-03-14T06:47:13.127Z,977.03
2023-03-14T06:48:13.119Z,977.04
2023-03-14T06:49:13.069Z,976.99
2023-03-14T06:50:13.044Z,977.01
2023-03-14T06:51:13.018Z,977.08
2023-03-14T06:52:12.980Z,977.03
2023-03-14T06:53:13.075Z,976.95
2023-03-14T06:54:12.924Z,977.02
2023-03-14T06:55:12.894Z,977.05
2023-03-14T06:56:12.862Z,977.03
2023-03-14T06:57:12.834Z,977.1
2023-03-14T06:58:12.810Z,977.04
2023-03-14T06:59:12.783Z,977.01
2023-03-14T07:00:12.745Z,977.06
2023-03-14T07:01:12.744Z,977.07
2023-03-14T07:02:12.690Z,977.08
2023-03-14T07:03:13.466Z,977.1
2023-03-14T07:04:12.901Z,977.06
2023-03-14T07:05:12.612Z,977.04
2023-03-14T07:06:12.569Z,977.12
2023-03-14T07:07:12.541Z,977.03
2023-03-14T07:08:12.525Z,977.16
2023-03-14T07:09:12.483Z,977.1
2023-03-14T07:10:12.451Z,977.07
2023-03-14T07:11:12.420Z,977.02
2023-03-14T07:12:12.406Z,977.06
2023-03-14T07:13:12.362Z,977.08
2023-03-14T07:14:12.336Z,977.1
2023-03-14T07:27:02.848Z,977.09
2023-03-14T07:28:02.788Z,977.12
2023-03-14T07:29:02.758Z,977.16
2023-03-14T07:30:02.731Z,977.14
2023-03-14T07:31:02.759Z,977.15
2023-03-14T07:32:02.670Z,977.1
2023-03-14T07:33:02.784Z,977.14
2023-03-14T07:34:02.635Z,977.16
2023-03-14T07:35:02.589Z,977.2
2023-03-14T07:36:02.567Z,977.09
2023-03-14T07:37:02.530Z,977.16
2023-03-14T07:38:02.499Z,977.15
2023-03-14T07:39:02.489Z,977.18
2023-03-14T07:40:02.471Z,977.14
2023-03-14T07:41:02.416Z,977.21
2023-03-14T07:42:02.387Z,977.25
2023-03-14T07:43:02.621Z,977.26
2023-03-14T07:44:02.335Z,977.21
2023-03-14T07:45:02.302Z,977.21
2023-03-14T07:46:02.278Z,977.26
2023-03-14T07:47:02.702Z,977.23
2023-03-14T07:48:02.228Z,977.24
2023-03-14T07:49:02.194Z,977.24
2023-03-14T07:50:02.164Z,977.28
2023-03-14T07:51:02.136Z,977.24
2023-03-14T07:52:02.104Z,977.34
2023-03-14T07:53:02.078Z,977.22
2023-03-14T07:54:02.048Z,977.25
2023-03-14T07:55:02.021Z,977.25
2023-03-14T07:56:02.000Z,977.28
2023-03-14T07:57:01.967Z,977.28
2023-03-14T07:58:01.936Z,977.31
2023-03-14T07:59:01.980Z,977.32
2023-03-14T08:00:01.882Z,977.32
2023-03-14T08:01:01.851Z,977.34
2023-03-14T08:02:01.832Z,977.34
2023-03-14T08:03:01.878Z,977.38
2023-03-14T08:04:01.882Z,977.32
2023-03-14T08:05:01.739Z,977.34
2023-03-14T08:06:01.729Z,977.28
2023-03-14T08:07:01.685Z,977.37
2023-03-14T08:08:01.657Z,977.33
2023-03-14T08:09:01.626Z,977.34
2023-03-14T08:10:01.603Z,977.31
2023-03-14T08:11:01.570Z,977.37
2023-03-14T08:12:01.543Z,977.36
2023-03-14T08:13:01.514Z,977.32
2023-03-14T08:14:01.486Z,977.36
2023-03-14T08:15:01.483Z,977.36
2023-03-14T08:16:01.480Z,977.29
2023-03-14T08:17:01.399Z,977.39
2023-03-14T08:18:01.382Z,977.38
2023-03-14T08:19:01.347Z,977.41
2023-03-14T08:20:01.319Z,977.45
2023-03-14T08:21:01.288Z,977.33
2023-03-14T08:22:01.271Z,977.38
2023-03-14T08:23:01.230Z,977.38
2023-03-14T08:24:01.205Z,977.43
2023-03-14T08:25:01.177Z,977.42
2023-03-14T08:26:01.149Z,977.37
2023-03-14T08:27:01.120Z,977.37
2023-03-14T08:28:01.090Z,977.42
2023-03-14T08:29:01.068Z,977.4
2023-03-14T08:30:01.048Z,977.37
2023-03-14T08:31:01.237Z,977.48
2023-03-14T08:32:01.045Z,977.44
2023-03-14T08:33:01.040Z,977.53
2023-03-14T08:34:00.927Z,977.44
2023-03-14T08:35:00.895Z,977.49
2023-03-14T08:36:00.946Z,977.47
2023-03-14T08:37:00.907Z,977.48
2023-03-14T08:38:00.826Z,977.6
2023-03-14T08:39:00.858Z,977.51
2023-03-14T08:40:00.761Z,977.49
2023-03-14T08:41:00.727Z,977.49
2023-03-14T08:42:00.698Z,977.51
2023-03-14T08:43:00.680Z,977.48
2023-03-14T08:44:00.691Z,977.55
2023-03-14T08:45:00.612Z,977.45
2023-03-14T08:46:00.605Z,977.48
2023-03-14T08:47:00.658Z,977.46
2023-03-14T08:48:00.530Z,977.4
2023-03-14T08:49:00.501Z,977.51
2023-03-14T08:50:00.545Z,977.53
2023-03-14T08:51:00.448Z,977.54
2023-03-14T08:52:00.416Z,977.53
2023-03-14T08:53:00.411Z,977.5
2023-03-14T08:54:00.360Z,977.56
2023-03-14T08:55:00.333Z,977.57
2023-03-14T08:56:00.303Z,977.52
2023-03-14T08:57:00.281Z,977.51
2023-03-14T08:58:00.250Z,977.48
2023-03-14T08:59:00.222Z,977.55
2023-03-14T09:00:00.190Z,977.6
2023-03-14T09:01:00.218Z,977.5
2023-03-14T09:02:00.149Z,977.56
2023-03-14T09:03:00.201Z,977.49
2023-03-14T09:04:00.170Z,977.58
2023-03-14T09:05:00.052Z,977.53
2023-03-14T09:06:00.032Z,977.59
2023-03-14T09:07:00.007Z,977.54
2023-03-14T09:07:59.969Z,977.6
2023-03-14T09:08:59.940Z,977.6
2023-03-14T09:09:59.912Z,977.55
2023-03-14T09:10:59.891Z,977.56
2023-03-14T09:11:59.856Z,977.55
2023-03-14T09:12:59.828Z,977.66
2023-03-14T09:13:59.801Z,977.59
2023-03-14T09:14:59.799Z,977.68
2023-03-14T09:15:59.768Z,977.61
2023-03-14T09:16:59.718Z,977.6
2023-03-14T09:17:59.686Z,977.55
2023-03-14T09:18:59.768Z,977.63
2023-03-14T09:20:00.647Z,977.64
2023-03-14T09:20:59.605Z,977.63
2023-03-14T09:21:59.576Z,977.64
2023-03-14T09:22:59.551Z,977.71
2023-03-14T09:23:59.521Z,977.67
2023-03-14T09:24:59.496Z,977.78
2023-03-14T09:25:59.464Z,977.74
2023-03-14T09:26:59.451Z,977.72
2023-03-14T09:27:59.408Z,977.71
2023-03-14T09:28:59.382Z,977.76
2023-03-14T09:29:59.351Z,977.81
2023-03-14T09:30:59.325Z,977.92
2023-03-14T09:31:59.327Z,977.91
2023-03-14T09:32:59.297Z,977.91
2023-03-14T09:33:59.258Z,977.87
2023-03-14T09:34:59.274Z,977.96
2023-03-14T09:35:59.260Z,978.01
2023-03-14T09:36:59.155Z,978
2023-03-14T09:37:59.130Z,978.08
2023-03-14T09:38:59.098Z,978
2023-03-14T09:39:59.070Z,978.04
2023-03-14T09:40:59.040Z,978.1
2023-03-14T09:41:59.023Z,978.05
2023-03-14T09:42:59.067Z,978.09
2023-03-14T09:43:58.988Z,978.2
2023-03-14T09:44:58.928Z,978.14
2023-03-14T09:45:58.909Z,978.23
2023-03-14T09:46:58.920Z,978.23
2023-03-14T09:48:00.044Z,978.3
2023-03-14T09:48:58.808Z,978.26
2023-03-14T09:49:58.784Z,978.32
2023-03-14T09:50:58.854Z,978.41
2023-03-14T09:51:58.736Z,978.39
2023-03-14T09:52:58.692Z,978.58
2023-03-14T09:53:58.665Z,978.74
2023-03-14T09:54:58.637Z,978.78
2023-03-14T09:55:58.609Z,978.91
2023-03-14T09:56:58.577Z,978.88
2023-03-14T09:57:58.548Z,978.94
2023-03-14T09:58:58.522Z,978.99
2023-03-14T09:59:58.503Z,979.04
2023-03-14T10:00:58.514Z,979.02
2023-03-14T10:01:58.441Z,979.05
2023-03-14T10:02:58.401Z,979.03
2023-03-14T10:03:58.423Z,979.11
2023-03-14T10:04:58.357Z,979.14
2023-03-14T10:05:58.316Z,979.14
2023-03-14T10:06:58.307Z,979.3
2023-03-14T10:07:58.258Z,979.25
2023-03-14T10:08:58.227Z,979.26
2023-03-14T10:09:58.200Z,979.36
2023-03-14T10:10:58.168Z,979.49
2023-03-14T10:11:58.153Z,979.51
2023-03-14T10:12:58.228Z,979.37
2023-03-14T10:13:58.078Z,979.59
2023-03-14T10:14:58.048Z,979.61
2023-03-14T10:15:58.023Z,979.61
2023-03-14T10:16:58.036Z,979.65
2023-03-14T10:17:57.960Z,979.76
2023-03-14T10:18:57.928Z,979.63
2023-03-14T10:19:57.901Z,979.7
2023-03-14T10:20:57.869Z,979.85
2023-03-14T10:21:57.857Z,979.83
2023-03-14T10:22:57.838Z,979.92
2023-03-14T10:23:57.781Z,979.99
2023-03-14T10:24:57.752Z,979.99
2023-03-14T10:25:57.721Z,980.1
2023-03-14T10:26:57.690Z,980.12
2023-03-14T10:27:57.696Z,980.02
2023-03-14T10:28:57.630Z,980.2
2023-03-14T10:29:59.515Z,980.3
2023-03-14T10:30:57.648Z,980.35
2023-03-14T10:31:57.536Z,980.44
2023-03-14T10:32:57.528Z,980.45
2023-03-14T10:33:57.480Z,980.27
2023-03-14T10:34:57.451Z,980.56
2023-03-14T10:35:57.458Z,980.42
2023-03-14T10:36:57.391Z,980.75
2023-03-14T10:37:57.360Z,980.76
2023-03-14T10:38:57.353Z,980.76
2023-03-14T10:39:57.297Z,980.74
2023-03-14T10:40:57.270Z,980.76
2023-03-14T10:41:59.604Z,980.77
2023-03-14T10:42:57.211Z,980.93
2023-03-14T10:43:57.184Z,980.97
2023-03-14T10:44:57.169Z,981.03
2023-03-14T10:45:57.141Z,980.97
2023-03-14T10:46:57.087Z,980.97
2023-03-14T10:47:57.055Z,981.04
2023-03-14T10:48:57.041Z,981.08
2023-03-14T10:49:57.000Z,980.97
2023-03-14T10:50:56.994Z,981.09
2023-03-14T10:51:56.932Z,981.18
2023-03-14T10:53:02.270Z,981.31
2023-03-14T10:53:56.869Z,981.27
2023-03-14T10:54:56.870Z,981.47
2023-03-14T10:55:56.824Z,981.39
2023-03-14T10:56:56.778Z,981.53
2023-03-14T10:57:56.748Z,981.55
2023-03-14T10:58:56.720Z,981.57
2023-03-14T10:59:56.687Z,981.78
2023-03-14T11:00:56.684Z,981.68
2023-03-14T11:01:56.736Z,981.78
2023-03-14T11:02:56.599Z,981.88
2023-03-14T11:03:56.564Z,981.83
2023-03-14T11:04:56.580Z,982.16
2023-03-14T11:05:56.499Z,982.04
2023-03-14T11:06:56.471Z,982.38
2023-03-14T11:07:56.437Z,982.41
2023-03-14T11:08:56.410Z,982.45
2023-03-14T11:09:56.382Z,982.36
2023-03-14T11:10:56.416Z,982.38
2023-03-14T11:11:56.315Z,982.42
2023-03-14T11:12:56.284Z,982.4
2023-03-14T11:13:56.252Z,982.44
2023-03-14T11:14:56.221Z,982.66
